Time;durP1;ratioP1;P1;durP2;ratioP2;P2;SDS_P1;SDS_P2;PMS_P1;PMS_P2;Temp;Humidity;BMP_temperature;BMP_pressure;BME280_temperature;BME280_humidity;BME280_pressure;Samples;Min_cycle;Max_cycle;Signal;HPM_P1;HPM_P2
2021/12/17 00:00:31;;;;;;;7.63;6.78;;;;;;;;;;4998751;28;20670;-83
2021/12/17 00:03:15;;;;;;;7.38;6.05;;;;;;;;;;4998767;28;20203;-84
2021/12/17 00:06:13;;;;;;;6.75;5.72;;;;;;;;;;4999220;28;20273;-84
2021/12/17 00:08:43;;;;;;;5.63;5.13;;;;;;;;;;4998943;28;20192;-83
2021/12/17 00:11:11;;;;;;;6.95;5.43;;;;;;;;;;4999937;28;20180;-84
2021/12/17 00:13:42;;;;;;;5.78;4.93;;;;;;;;;;4999473;28;20200;-83
2021/12/17 00:16:15;;;;;;;5.50;4.43;;;;;;;;;;4992775;28;20224;-84
2021/12/17 00:18:59;;;;;;;8.95;6.07;;;;;;;;;;4980118;28;20693;-83
2021/12/17 00:44:11;;;;;;;5.82;5.22;;;;;;;;;;4977515;28;20655;-83
2021/12/17 00:49:28;;;;;;;5.88;4.22;;;;;;;;;;4977029;28;20568;-83
2021/12/17 00:51:59;;;;;;;5.47;4.88;;;;;;;;;;4977309;28;20188;-83
2021/12/17 00:54:36;;;;;;;5.75;5.20;;;;;;;;;;4977379;28;20760;-84
2021/12/17 00:57:11;;;;;;;5.03;3.80;;;;;;;;;;4977261;28;20189;-83
2021/12/17 00:59:40;;;;;;;3.50;3.10;;;;;;;;;;4977268;28;20243;-83
2021/12/17 01:02:11;;;;;;;4.47;3.67;;;;;;;;;;4977327;28;20185;-82
2021/12/17 01:04:41;;;;;;;5.82;5.18;;;;;;;;;;4976204;28;20219;-84
2021/12/17 01:07:11;;;;;;;4.47;4.07;;;;;;;;;;4976985;28;20719;-83
2021/12/17 01:09:40;;;;;;;5.75;5.15;;;;;;;;;;4976783;28;20678;-82
2021/12/17 01:12:08;;;;;;;6.72;6.07;;;;;;;;;;4976923;28;20188;-81
2021/12/17 01:14:41;;;;;;;8.23;7.25;;;;;;;;;;4976430;28;20252;-82
2021/12/17 01:17:10;;;;;;;6.70;6.00;;;;;;;;;;4976438;28;20235;-82
2021/12/17 01:20:09;;;;;;;5.55;5.05;;;;;;;;;;4976487;28;20272;-82
2021/12/17 01:25:41;;;;;;;4.25;3.85;;;;;;;;;;4970188;28;20208;-82
2021/12/17 01:36:43;;;;;;;3.65;3.35;;;;;;;;;;4954424;29;20201;-84
2021/12/17 01:42:05;;;;;;;5.28;4.78;;;;;;;;;;4956794;28;20208;-82
2021/12/17 01:44:33;;;;;;;6.03;5.03;;;;;;;;;;4956984;29;20308;-83
2021/12/17 01:47:00;;;;;;;6.53;5.82;;;;;;;;;;4957494;29;20239;-83
2021/12/17 02:00:43;;;;;;;5.47;4.97;;;;;;;;;;4957329;29;20208;-83
2021/12/17 02:03:13;;;;;;;4.90;4.40;;;;;;;;;;4957538;28;20186;-83
2021/12/17 02:05:43;;;;;;;6.00;5.40;;;;;;;;;;4957414;28;20217;-83
2021/12/17 02:08:11;;;;;;;6.38;5.78;;;;;;;;;;4957697;28;20193;-83
2021/12/17 02:30:30;;;;;;;4.60;4.20;;;;;;;;;;4996921;28;20269;-84
2021/12/17 02:32:58;;;;;;;5.50;5.00;;;;;;;;;;4997976;28;20203;-82
2021/12/17 02:35:34;;;;;;;7.97;7.13;;;;;;;;;;4997304;28;20234;-84
2021/12/17 02:38:05;;;;;;;5.07;4.57;;;;;;;;;;4996974;28;20238;-83
2021/12/17 02:46:04;;;;;;;4.88;4.32;;;;;;;;;;4997520;28;20234;-84
2021/12/17 02:48:32;;;;;;;5.65;4.35;;;;;;;;;;4997345;28;20207;-84
2021/12/17 02:51:01;;;;;;;7.70;6.28;;;;;;;;;;4996192;28;20200;-83
2021/12/17 02:53:30;;;;;;;8.10;5.22;;;;;;;;;;4996504;28;20196;-84
2021/12/17 02:56:04;;;;;;;4.38;3.97;;;;;;;;;;4997280;23;20238;-85
2021/12/17 02:58:35;;;;;;;6.85;6.10;;;;;;;;;;4974183;28;20204;-85
2021/12/17 03:01:04;;;;;;;6.22;5.47;;;;;;;;;;4973837;28;20185;-85
2021/12/17 03:03:34;;;;;;;7.38;6.03;;;;;;;;;;4974472;28;20216;-85
2021/12/17 03:06:02;;;;;;;7.97;7.05;;;;;;;;;;4974184;28;20307;-85
2021/12/17 03:08:32;;;;;;;7.43;6.65;;;;;;;;;;4973559;28;20185;-84
2021/12/17 03:11:01;;;;;;;6.63;5.20;;;;;;;;;;4973269;28;20291;-85
2021/12/17 03:13:32;;;;;;;8.95;6.22;;;;;;;;;;4973740;28;20241;-85
2021/12/17 03:16:06;;;;;;;7.75;6.65;;;;;;;;;;4984330;28;20227;-85
2021/12/17 03:24:09;;;;;;;8.60;7.18;;;;;;;;;;4992711;28;20207;-85
2021/12/17 03:26:36;;;;;;;8.70;6.18;;;;;;;;;;4992890;28;20215;-84
2021/12/17 03:29:07;;;;;;;7.60;6.78;;;;;;;;;;4996622;28;20188;-85
2021/12/17 03:31:35;;;;;;;9.63;7.55;;;;;;;;;;4996297;28;20204;-83
2021/12/17 03:34:16;;;;;;;8.77;6.13;;;;;;;;;;4996939;28;20188;-84
2021/12/17 03:36:44;;;;;;;8.60;7.30;;;;;;;;;;4996268;28;20250;-83
2021/12/17 03:39:13;;;;;;;9.45;8.30;;;;;;;;;;4995758;28;20192;-83
2021/12/17 03:41:47;;;;;;;10.30;8.77;;;;;;;;;;4994521;28;20187;-83
2021/12/17 03:44:15;;;;;;;8.52;7.63;;;;;;;;;;4996174;28;20662;-83
2021/12/17 03:46:44;;;;;;;8.88;7.20;;;;;;;;;;4995871;28;20575;-84
2021/12/17 03:49:12;;;;;;;9.80;7.00;;;;;;;;;;4995978;28;20218;-83
2021/12/17 03:51:48;;;;;;;10.75;7.28;;;;;;;;;;4995081;28;20192;-83
2021/12/17 03:54:17;;;;;;;7.80;6.90;;;;;;;;;;4995357;28;20235;-83
2021/12/17 03:56:44;;;;;;;7.88;6.13;;;;;;;;;;4995779;28;20203;-84
2021/12/17 03:59:12;;;;;;;7.93;6.72;;;;;;;;;;4996103;28;20696;-84
2021/12/17 04:01:40;;;;;;;8.88;6.78;;;;;;;;;;4995812;28;20207;-85
2021/12/17 04:04:08;;;;;;;8.52;6.63;;;;;;;;;;4995734;28;20650;-84
2021/12/17 04:06:36;;;;;;;8.48;6.82;;;;;;;;;;4995852;28;20192;-83
2021/12/17 04:09:05;;;;;;;8.73;6.55;;;;;;;;;;4996147;28;20203;-84
2021/12/17 04:11:34;;;;;;;7.00;6.20;;;;;;;;;;4996091;28;20226;-83
2021/12/17 04:14:01;;;;;;;7.68;6.07;;;;;;;;;;4996266;28;20226;-84
2021/12/17 04:16:32;;;;;;;9.40;7.03;;;;;;;;;;4996442;28;20190;-84
2021/12/17 04:19:00;;;;;;;8.10;5.97;;;;;;;;;;4996114;28;20203;-83
2021/12/17 04:21:28;;;;;;;5.88;5.28;;;;;;;;;;4995199;28;20215;-83
2021/12/17 04:23:55;;;;;;;8.30;6.20;;;;;;;;;;4995813;28;20587;-83
2021/12/17 04:26:25;;;;;;;7.88;6.53;;;;;;;;;;4995529;28;20214;-83
2021/12/17 04:28:54;;;;;;;5.88;5.35;;;;;;;;;;4995573;28;20220;-83
2021/12/17 04:31:25;;;;;;;5.53;4.93;;;;;;;;;;4995096;28;20188;-83
2021/12/17 04:33:53;;;;;;;8.88;5.65;;;;;;;;;;4995210;28;20203;-83
2021/12/17 04:36:22;;;;;;;6.22;5.10;;;;;;;;;;4995084;28;20192;-83
2021/12/17 04:38:50;;;;;;;5.95;5.15;;;;;;;;;;4994029;28;20258;-84
2021/12/17 04:44:11;;;;;;;9.90;6.25;;;;;;;;;;4994355;28;20287;-82
2021/12/17 04:46:44;;;;;;;9.98;6.88;;;;;;;;;;4995873;28;20207;-83
2021/12/17 04:57:33;;;;;;;8.93;5.97;;;;;;;;;;4980261;28;20208;-84
2021/12/17 05:00:07;;;;;;;7.03;6.13;;;;;;;;;;4979684;28;20189;-84
2021/12/17 05:02:42;;;;;;;8.05;6.25;;;;;;;;;;4977752;28;20670;-83
2021/12/17 05:05:11;;;;;;;7.55;6.75;;;;;;;;;;4986694;28;20253;-83
2021/12/17 05:07:46;;;;;;;8.48;6.50;;;;;;;;;;4996206;28;20622;-84
2021/12/17 05:10:22;;;;;;;6.50;5.47;;;;;;;;;;4995064;28;20211;-83
2021/12/17 05:18:24;;;;;;;4.82;4.43;;;;;;;;;;4996393;28;20179;-84
2021/12/17 05:20:56;;;;;;;4.95;4.15;;;;;;;;;;4977896;28;20185;-83
2021/12/17 05:23:29;;;;;;;6.15;5.55;;;;;;;;;;4978647;28;20261;-83
2021/12/17 05:25:57;;;;;;;7.82;6.07;;;;;;;;;;4976869;28;20258;-84
2021/12/17 05:28:25;;;;;;;6.20;5.60;;;;;;;;;;4977852;28;20208;-83
2021/12/17 05:30:55;;;;;;;6.75;6.05;;;;;;;;;;4996714;28;20233;-83
2021/12/17 05:33:25;;;;;;;7.15;6.20;;;;;;;;;;4996929;28;20192;-83
2021/12/17 05:35:53;;;;;;;6.15;5.50;;;;;;;;;;4996152;28;20232;-83
2021/12/17 05:38:22;;;;;;;7.82;6.68;;;;;;;;;;4995684;28;20601;-83
2021/12/17 05:40:50;;;;;;;7.57;6.80;;;;;;;;;;4995781;28;20210;-83
2021/12/17 05:43:18;;;;;;;6.38;5.63;;;;;;;;;;4995576;28;20188;-83
2021/12/17 05:45:51;;;;;;;7.75;6.95;;;;;;;;;;4995283;28;20562;-83
2021/12/17 05:48:22;;;;;;;8.90;7.00;;;;;;;;;;4994846;28;20605;-83
2021/12/17 05:50:53;;;;;;;7.97;6.25;;;;;;;;;;4994007;28;20226;-83
2021/12/17 05:53:21;;;;;;;11.15;8.40;;;;;;;;;;4996044;28;20216;-83
2021/12/17 05:55:48;;;;;;;8.25;6.95;;;;;;;;;;4995584;28;20246;-83
2021/12/17 05:58:16;;;;;;;9.70;6.68;;;;;;;;;;4997141;28;20211;-83
2021/12/17 06:00:45;;;;;;;9.20;6.65;;;;;;;;;;4996468;28;20192;-83
2021/12/17 06:03:13;;;;;;;7.80;6.57;;;;;;;;;;4996187;28;20184;-83
2021/12/17 06:05:42;;;;;;;6.90;6.20;;;;;;;;;;4995966;28;20732;-83
2021/12/17 06:08:10;;;;;;;7.68;6.55;;;;;;;;;;4996019;28;20207;-83
2021/12/17 06:10:37;;;;;;;5.60;5.07;;;;;;;;;;4994833;28;20200;-83
2021/12/17 06:13:05;;;;;;;5.93;4.53;;;;;;;;;;4995954;28;20582;-83
2021/12/17 06:15:32;;;;;;;6.57;5.05;;;;;;;;;;4996083;28;20609;-83
2021/12/17 06:18:00;;;;;;;5.65;5.15;;;;;;;;;;4996013;28;20666;-84
2021/12/17 06:20:27;;;;;;;6.70;5.63;;;;;;;;;;4995455;28;20203;-83
2021/12/17 06:22:56;;;;;;;8.73;5.63;;;;;;;;;;4995307;28;20195;-83
2021/12/17 06:25:24;;;;;;;5.80;4.90;;;;;;;;;;4994853;28;20215;-83
2021/12/17 06:27:51;;;;;;;7.85;6.00;;;;;;;;;;4994905;28;20220;-84
2021/12/17 06:30:20;;;;;;;12.07;8.15;;;;;;;;;;4994943;28;20234;-84
2021/12/17 06:32:48;;;;;;;8.27;6.53;;;;;;;;;;4995254;28;20592;-83
2021/12/17 06:35:16;;;;;;;12.35;7.85;;;;;;;;;;4995478;28;20233;-84
2021/12/17 06:37:44;;;;;;;7.97;7.18;;;;;;;;;;4995332;28;20184;-83
2021/12/17 06:40:14;;;;;;;8.40;6.53;;;;;;;;;;4995423;28;20194;-84
2021/12/17 06:42:41;;;;;;;11.85;7.18;;;;;;;;;;4995138;28;20260;-84
2021/12/17 06:45:19;;;;;;;10.70;7.95;;;;;;;;;;4994861;28;20227;-84
2021/12/17 06:47:54;;;;;;;8.88;7.20;;;;;;;;;;4994766;28;20279;-84
2021/12/17 06:58:57;;;;;;;5.60;4.70;;;;;;;;;;4994600;28;20190;-85
2021/12/17 07:07:26;;;;;;;8.82;6.88;;;;;;;;;;4997820;28;20246;-84
2021/12/17 07:10:14;;;;;;;8.57;7.07;;;;;;;;;;4996943;28;20253;-84
2021/12/17 07:18:53;;;;;;;10.45;8.18;;;;;;;;;;4975322;28;20218;-85
2021/12/17 07:21:27;;;;;;;9.35;7.32;;;;;;;;;;4997573;28;20282;-84
2021/12/17 07:32:42;;;;;;;9.23;7.35;;;;;;;;;;4997455;28;20246;-84
2021/12/17 07:35:38;;;;;;;7.53;6.43;;;;;;;;;;4997572;28;20222;-85
2021/12/17 07:40:52;;;;;;;7.22;6.00;;;;;;;;;;4997520;28;20214;-85
2021/12/17 07:43:36;;;;;;;10.07;6.40;;;;;;;;;;4997944;28;20670;-85
2021/12/17 07:46:08;;;;;;;7.95;5.57;;;;;;;;;;4997913;28;20311;-84
2021/12/17 07:48:37;;;;;;;7.15;5.93;;;;;;;;;;4996663;28;20184;-84
2021/12/17 07:51:07;;;;;;;6.72;4.95;;;;;;;;;;4997475;28;20199;-85
2021/12/17 07:53:35;;;;;;;6.85;5.25;;;;;;;;;;4997966;28;20195;-85
2021/12/17 07:56:05;;;;;;;6.07;5.47;;;;;;;;;;4997585;28;20239;-85
2021/12/17 07:59:39;;;;;;;5.05;4.50;;;;;;;;;;4995653;28;20195;-84
2021/12/17 08:02:08;;;;;;;7.95;5.47;;;;;;;;;;4996308;28;20258;-85
2021/12/17 08:04:36;;;;;;;5.50;5.00;;;;;;;;;;4997984;28;20227;-85
2021/12/17 08:07:04;;;;;;;4.78;3.85;;;;;;;;;;4997142;28;20208;-85
2021/12/17 08:09:32;;;;;;;4.32;3.50;;;;;;;;;;4998110;28;20299;-84
2021/12/17 08:12:00;;;;;;;3.92;3.53;;;;;;;;;;4997463;28;20677;-84
2021/12/17 08:14:29;;;;;;;3.53;3.22;;;;;;;;;;4997460;28;20223;-85
2021/12/17 08:17:05;;;;;;;3.13;2.78;;;;;;;;;;4998000;28;20184;-84
2021/12/17 08:25:12;;;;;;;2.85;2.35;;;;;;;;;;4996697;28;20243;-84
2021/12/17 08:27:50;;;;;;;2.55;2.35;;;;;;;;;;4996729;28;20251;-84
2021/12/17 08:30:26;;;;;;;2.97;2.78;;;;;;;;;;4996489;28;20680;-84
2021/12/17 08:32:54;;;;;;;5.72;3.45;;;;;;;;;;4997285;28;20211;-84
2021/12/17 08:35:22;;;;;;;3.50;2.83;;;;;;;;;;4997415;28;20223;-84
2021/12/17 08:37:50;;;;;;;3.92;3.50;;;;;;;;;;4997222;28;20192;-85
2021/12/17 08:40:18;;;;;;;4.15;3.75;;;;;;;;;;4997021;28;20239;-84
2021/12/17 08:42:45;;;;;;;3.42;3.00;;;;;;;;;;4997504;28;20188;-84
2021/12/17 08:45:13;;;;;;;3.25;2.80;;;;;;;;;;4996457;28;20223;-84
2021/12/17 08:47:43;;;;;;;7.53;4.97;;;;;;;;;;4996787;28;20204;-84
2021/12/17 08:50:13;;;;;;;3.38;3.08;;;;;;;;;;4982522;28;20634;-83
2021/12/17 08:52:43;;;;;;;6.82;4.72;;;;;;;;;;4977079;28;20188;-83
2021/12/17 08:55:11;;;;;;;6.82;6.10;;;;;;;;;;4986807;28;20697;-83
2021/12/17 08:57:39;;;;;;;4.97;4.55;;;;;;;;;;4996670;28;20196;-84
2021/12/17 09:00:09;;;;;;;3.40;3.10;;;;;;;;;;5020379;23;20235;-86
2021/12/17 09:02:41;;;;;;;3.45;3.15;;;;;;;;;;4954498;29;20220;-86
2021/12/17 09:05:17;;;;;;;5.13;4.63;;;;;;;;;;4967813;28;20246;-87
2021/12/17 09:07:51;;;;;;;5.95;5.15;;;;;;;;;;4973573;28;20207;-88
2021/12/17 09:10:22;;;;;;;5.38;4.82;;;;;;;;;;4973363;28;20234;-88
2021/12/17 09:12:50;;;;;;;7.55;6.85;;;;;;;;;;4972029;28;20218;-86
2021/12/17 09:15:18;;;;;;;10.90;8.68;;;;;;;;;;4972725;28;20284;-86
2021/12/17 09:17:47;;;;;;;8.00;7.20;;;;;;;;;;4973253;28;20292;-86
2021/12/17 09:20:14;;;;;;;9.40;7.20;;;;;;;;;;4973291;28;20590;-87
2021/12/17 09:22:43;;;;;;;7.97;6.18;;;;;;;;;;4965598;28;20197;-86
2021/12/17 09:25:14;;;;;;;5.32;4.82;;;;;;;;;;4953129;28;20218;-86
2021/12/17 09:27:45;;;;;;;5.65;4.43;;;;;;;;;;4953512;29;20193;-86
2021/12/17 09:30:17;;;;;;;4.68;4.03;;;;;;;;;;4953726;29;20324;-86
2021/12/17 09:32:45;;;;;;;5.00;3.60;;;;;;;;;;4967629;28;20642;-87
2021/12/17 09:35:15;;;;;;;3.97;3.58;;;;;;;;;;4955678;28;20200;-85
2021/12/17 09:37:43;;;;;;;3.90;3.50;;;;;;;;;;4965411;28;20195;-85
2021/12/17 09:40:13;;;;;;;3.55;3.25;;;;;;;;;;4961026;28;20220;-86
2021/12/17 09:42:44;;;;;;;2.90;2.42;;;;;;;;;;4975301;28;20272;-86
2021/12/17 09:45:20;;;;;;;3.50;3.17;;;;;;;;;;4974967;28;20639;-86
2021/12/17 09:47:49;;;;;;;3.35;3.05;;;;;;;;;;4974705;28;20223;-86
2021/12/17 09:50:20;;;;;;;4.55;3.58;;;;;;;;;;4946234;28;20230;-85
2021/12/17 09:52:55;;;;;;;5.47;3.92;;;;;;;;;;4936617;29;20237;-86
2021/12/17 09:55:24;;;;;;;3.60;3.30;;;;;;;;;;4951851;28;20694;-84
2021/12/17 09:57:53;;;;;;;3.63;3.33;;;;;;;;;;4957644;28;20215;-87
2021/12/17 10:00:26;;;;;;;3.42;3.13;;;;;;;;;;4964328;28;20311;-86
2021/12/17 10:02:55;;;;;;;3.00;2.72;;;;;;;;;;4955219;29;20193;-86
2021/12/17 10:05:26;;;;;;;3.35;3.05;;;;;;;;;;4955216;29;20200;-87
2021/12/17 10:07:58;;;;;;;3.38;3.08;;;;;;;;;;4954340;28;20215;-87
2021/12/17 10:10:36;;;;;;;3.65;3.35;;;;;;;;;;4955368;28;20235;-87
2021/12/17 10:13:15;;;;;;;3.38;2.80;;;;;;;;;;4955258;28;20207;-86
2021/12/17 10:15:48;;;;;;;3.65;3.35;;;;;;;;;;4955313;28;20564;-85
2021/12/17 10:18:19;;;;;;;3.05;2.85;;;;;;;;;;4970603;28;20196;-84
2021/12/17 10:20:57;;;;;;;2.67;2.47;;;;;;;;;;4969989;28;20220;-86
2021/12/17 10:23:27;;;;;;;4.72;4.20;;;;;;;;;;4965195;28;20275;-85
2021/12/17 10:25:58;;;;;;;4.10;3.50;;;;;;;;;;4974163;28;20697;-86
2021/12/17 10:28:26;;;;;;;2.50;2.30;;;;;;;;;;4958024;28;20264;-86
2021/12/17 10:30:55;;;;;;;2.70;2.50;;;;;;;;;;4954761;29;20252;-85
2021/12/17 10:33:26;;;;;;;2.83;2.60;;;;;;;;;;4954993;29;20189;-87
2021/12/17 10:36:00;;;;;;;3.90;3.50;;;;;;;;;;4954232;29;20632;-86
2021/12/17 10:38:29;;;;;;;4.07;3.05;;;;;;;;;;4958205;28;20200;-84
2021/12/17 10:41:03;;;;;;;3.35;3.03;;;;;;;;;;4973917;28;20303;-86
2021/12/17 10:43:36;;;;;;;3.42;3.13;;;;;;;;;;4970343;28;20193;-84
2021/12/17 10:46:09;;;;;;;2.92;2.72;;;;;;;;;;4955251;28;20193;-85
2021/12/17 10:48:50;;;;;;;3.10;2.80;;;;;;;;;;4963510;28;20786;-87
2021/12/17 10:51:30;;;;;;;3.15;2.78;;;;;;;;;;4948118;28;20370;-84
2021/12/17 10:54:06;;;;;;;4.03;3.63;;;;;;;;;;4941571;28;20209;-85
2021/12/17 10:56:39;;;;;;;3.83;3.42;;;;;;;;;;4937186;29;20186;-85
2021/12/17 10:59:10;;;;;;;3.90;3.25;;;;;;;;;;4937473;29;20198;-84
2021/12/17 11:01:44;;;;;;;4.25;3.70;;;;;;;;;;4973358;28;20233;-85
2021/12/17 11:04:20;;;;;;;4.32;3.53;;;;;;;;;;4973707;28;20189;-85
2021/12/17 11:06:55;;;;;;;3.50;3.05;;;;;;;;;;4974028;28;20222;-84
2021/12/17 11:09:39;;;;;;;3.45;3.15;;;;;;;;;;4973734;28;20690;-86
2021/12/17 11:12:29;;;;;;;3.70;3.33;;;;;;;;;;4973467;28;20267;-86
2021/12/17 11:15:17;;;;;;;4.13;3.70;;;;;;;;;;4974104;28;20659;-84
2021/12/17 11:17:47;;;;;;;4.22;3.80;;;;;;;;;;4970720;28;20695;-86
2021/12/17 11:20:18;;;;;;;3.22;2.95;;;;;;;;;;4965651;28;20310;-84
2021/12/17 11:22:47;;;;;;;4.93;3.88;;;;;;;;;;4972686;28;20275;-85
2021/12/17 11:25:17;;;;;;;3.90;3.50;;;;;;;;;;4961044;28;20233;-84
2021/12/17 11:27:46;;;;;;;4.07;3.60;;;;;;;;;;4956334;28;20193;-86
2021/12/17 11:30:17;;;;;;;5.30;3.45;;;;;;;;;;4954931;29;20229;-86
2021/12/17 11:32:47;;;;;;;2.78;2.47;;;;;;;;;;4954056;29;20216;-86
2021/12/17 11:35:18;;;;;;;2.28;2.13;;;;;;;;;;4948951;29;20202;-86
2021/12/17 11:37:47;;;;;;;2.33;2.15;;;;;;;;;;4944739;29;20197;-85
2021/12/17 11:40:22;;;;;;;2.13;1.92;;;;;;;;;;4956014;28;20228;-86
2021/12/17 11:43:29;;;;;;;1.45;1.35;;;;;;;;;;4955468;29;20192;-86
2021/12/17 11:46:03;;;;;;;1.52;1.42;;;;;;;;;;4950615;29;20209;-85
2021/12/17 11:48:35;;;;;;;1.48;1.38;;;;;;;;;;4964473;28;20666;-86
2021/12/17 11:51:12;;;;;;;1.48;1.38;;;;;;;;;;4958890;29;20225;-85
2021/12/17 11:54:04;;;;;;;1.50;1.40;;;;;;;;;;4964041;28;20643;-85
2021/12/17 11:56:44;;;;;;;1.58;1.48;;;;;;;;;;4957806;28;20233;-84
2021/12/17 11:59:36;;;;;;;1.85;1.75;;;;;;;;;;4958976;29;20277;-84
2021/12/17 12:02:15;;;;;;;1.50;1.40;;;;;;;;;;4923100;28;1108320;-86
2021/12/17 12:04:58;;;;;;;1.33;1.30;;;;;;;;;;4965642;28;20589;-84
2021/12/17 12:07:40;;;;;;;1.70;1.08;;;;;;;;;;4955305;28;20201;-84
2021/12/17 12:10:22;;;;;;;1.27;1.08;;;;;;;;;;4948130;29;20236;-87
2021/12/17 12:13:01;;;;;;;1.52;1.40;;;;;;;;;;4940109;29;20228;-86
2021/12/17 12:15:39;;;;;;;1.35;1.13;;;;;;;;;;4939195;29;20927;-86
2021/12/17 12:18:11;;;;;;;1.40;1.23;;;;;;;;;;4946198;28;20196;-85
2021/12/17 12:20:58;;;;;;;1.83;1.30;;;;;;;;;;4977654;28;20237;-84
2021/12/17 12:23:53;;;;;;;1.30;1.20;;;;;;;;;;4977898;28;20610;-86
2021/12/17 12:26:38;;;;;;;1.55;1.45;;;;;;;;;;4977633;28;20204;-87
2021/12/17 12:29:11;;;;;;;1.60;1.50;;;;;;;;;;4977115;28;20600;-86
2021/12/17 12:32:03;;;;;;;1.48;1.38;;;;;;;;;;4977229;28;20215;-87
2021/12/17 12:34:38;;;;;;;1.42;1.33;;;;;;;;;;4977996;28;20690;-86
2021/12/17 12:37:28;;;;;;;2.30;1.40;;;;;;;;;;4940600;28;20628;-86
2021/12/17 12:40:21;;;;;;;1.35;1.30;;;;;;;;;;4943335;29;20280;-86
2021/12/17 12:42:57;;;;;;;1.00;1.00;;;;;;;;;;4939170;29;20190;-87
2021/12/17 12:45:31;;;;;;;1.60;1.40;;;;;;;;;;4955877;29;20624;-84
2021/12/17 12:48:01;;;;;;;1.25;1.15;;;;;;;;;;4958971;28;20189;-87
2021/12/17 12:50:32;;;;;;;1.40;1.30;;;;;;;;;;4968522;28;20224;-86
2021/12/17 12:53:08;;;;;;;1.10;1.10;;;;;;;;;;4957294;28;20311;-86
2021/12/17 12:55:39;;;;;;;1.17;1.13;;;;;;;;;;4956677;28;20197;-86
2021/12/17 12:58:12;;;;;;;1.48;1.38;;;;;;;;;;4964364;28;20694;-85
2021/12/17 13:00:48;;;;;;;1.40;1.30;;;;;;;;;;4962653;28;20235;-86
2021/12/17 13:03:20;;;;;;;1.20;1.10;;;;;;;;;;4955658;29;20651;-85
2021/12/17 13:05:49;;;;;;;1.15;1.10;;;;;;;;;;4956232;29;20683;-86
2021/12/17 13:08:19;;;;;;;1.60;1.50;;;;;;;;;;4956392;28;20221;-86
2021/12/17 13:10:50;;;;;;;1.35;1.25;;;;;;;;;;4956638;29;20594;-86
2021/12/17 13:13:27;;;;;;;2.00;1.70;;;;;;;;;;4956603;29;20276;-87
2021/12/17 13:16:12;;;;;;;1.92;1.60;;;;;;;;;;4958169;29;20197;-87
2021/12/17 13:21:46;;;;;;;1.85;1.65;;;;;;;;;;4955161;29;20192;-88
2021/12/17 13:24:17;;;;;;;1.40;1.35;;;;;;;;;;4955689;28;20197;-84
2021/12/17 13:26:47;;;;;;;1.60;1.50;;;;;;;;;;4956678;28;20213;-86
2021/12/17 13:29:24;;;;;;;1.60;1.50;;;;;;;;;;4962488;29;20197;-86
2021/12/17 13:31:54;;;;;;;1.33;1.08;;;;;;;;;;4962965;29;20559;-86
2021/12/17 13:34:28;;;;;;;1.50;1.38;;;;;;;;;;4963388;29;20204;-87
2021/12/17 13:37:00;;;;;;;1.00;1.00;;;;;;;;;;4955112;29;20209;-86
2021/12/17 13:39:32;;;;;;;1.13;1.02;;;;;;;;;;4960580;28;20287;-86
2021/12/17 13:42:01;;;;;;;1.60;1.50;;;;;;;;;;4954601;29;20207;-87
2021/12/17 13:44:46;;;;;;;1.65;1.33;;;;;;;;;;4959841;28;20193;-86
2021/12/17 13:47:29;;;;;;;1.52;1.42;;;;;;;;;;4955418;29;20240;-87
2021/12/17 13:50:08;;;;;;;1.60;1.50;;;;;;;;;;4956163;29;20217;-85
2021/12/17 13:52:38;;;;;;;1.50;1.40;;;;;;;;;;4957528;29;20228;-86
2021/12/17 13:55:11;;;;;;;1.80;1.70;;;;;;;;;;4966472;28;20193;-86
2021/12/17 13:57:40;;;;;;;1.55;1.45;;;;;;;;;;4957954;28;20209;-86
2021/12/17 14:00:14;;;;;;;1.80;1.70;;;;;;;;;;4964422;28;20721;-86
2021/12/17 14:02:45;;;;;;;1.85;1.70;;;;;;;;;;4955791;29;20200;-86
2021/12/17 14:05:25;;;;;;;1.85;1.50;;;;;;;;;;4959543;28;20210;-85
2021/12/17 14:07:56;;;;;;;1.80;1.70;;;;;;;;;;4961508;28;20263;-86
2021/12/17 14:10:27;;;;;;;2.17;1.88;;;;;;;;;;4955685;28;20597;-84
2021/12/17 14:12:56;;;;;;;2.25;2.00;;;;;;;;;;4957757;29;20220;-85
2021/12/17 14:15:27;;;;;;;2.10;1.90;;;;;;;;;;4958263;28;20193;-86
2021/12/17 14:17:59;;;;;;;2.00;1.90;;;;;;;;;;4957799;29;20213;-87
2021/12/17 14:20:37;;;;;;;2.80;2.60;;;;;;;;;;4958216;29;20221;-87
2021/12/17 14:23:09;;;;;;;1.55;1.45;;;;;;;;;;4958284;29;20205;-87
2021/12/17 14:25:40;;;;;;;3.33;2.55;;;;;;;;;;4957701;28;20186;-86
2021/12/17 14:28:15;;;;;;;2.15;1.90;;;;;;;;;;4939252;29;20210;-85
2021/12/17 14:30:46;;;;;;;2.15;2.05;;;;;;;;;;4938870;29;20223;-86
2021/12/17 14:33:18;;;;;;;2.65;2.35;;;;;;;;;;4943153;29;20700;-85
2021/12/17 14:35:51;;;;;;;2.53;2.33;;;;;;;;;;4970572;28;20232;-87
2021/12/17 14:38:20;;;;;;;2.70;2.50;;;;;;;;;;4978754;28;20196;-85
2021/12/17 14:40:59;;;;;;;3.72;3.00;;;;;;;;;;4964974;28;20225;-86
2021/12/17 14:43:32;;;;;;;2.67;2.42;;;;;;;;;;4956297;29;20236;-86
2021/12/17 14:46:13;;;;;;;3.30;3.00;;;;;;;;;;4972367;28;20287;-87
2021/12/17 14:48:54;;;;;;;3.05;2.75;;;;;;;;;;4974942;28;20211;-86
2021/12/17 14:57:49;;;;;;;3.15;2.83;;;;;;;;;;4975833;28;20677;-85
2021/12/17 15:00:31;;;;;;;2.33;2.13;;;;;;;;;;4975407;28;20228;-85
2021/12/17 17:02:28;;;;;;;2.55;2.35;;;;;;;;;;5596583;23;20227;-82
2021/12/17 17:04:55;;;;;;;4.38;3.20;;;;;;;;;;5015301;28;20199;-83
2021/12/17 17:07:23;;;;;;;3.40;3.10;;;;;;;;;;5015926;28;20207;-83
2021/12/17 17:09:50;;;;;;;3.75;3.35;;;;;;;;;;5015762;28;20581;-83
2021/12/17 17:12:18;;;;;;;3.58;3.28;;;;;;;;;;5015069;28;20600;-83
2021/12/17 17:14:45;;;;;;;3.90;3.50;;;;;;;;;;5015287;28;20229;-82
2021/12/17 17:17:12;;;;;;;3.85;3.28;;;;;;;;;;5013147;28;20206;-82
2021/12/17 17:19:41;;;;;;;3.83;3.38;;;;;;;;;;5013572;28;20666;-83
2021/12/17 17:22:30;;;;;;;4.60;4.20;;;;;;;;;;5014597;28;20735;-83
2021/12/17 17:24:58;;;;;;;3.58;3.28;;;;;;;;;;5013693;28;20633;-83
2021/12/17 17:27:25;;;;;;;3.33;3.03;;;;;;;;;;5013339;28;20207;-83
2021/12/17 17:29:53;;;;;;;3.63;3.33;;;;;;;;;;5013618;28;20211;-84
2021/12/17 17:32:20;;;;;;;6.25;4.05;;;;;;;;;;5013377;28;20219;-82
2021/12/17 17:34:49;;;;;;;5.30;4.80;;;;;;;;;;5013407;28;20234;-86
2021/12/17 17:37:16;;;;;;;5.05;4.55;;;;;;;;;;5013097;28;20199;-82
2021/12/17 17:39:44;;;;;;;6.15;5.55;;;;;;;;;;5013096;28;20198;-83
2021/12/17 17:42:11;;;;;;;4.88;4.38;;;;;;;;;;5013103;28;20215;-83
2021/12/17 17:44:38;;;;;;;4.95;4.22;;;;;;;;;;5012714;28;20210;-82
2021/12/17 17:47:06;;;;;;;4.35;3.95;;;;;;;;;;5012877;28;20214;-82
2021/12/17 17:49:34;;;;;;;5.72;4.80;;;;;;;;;;5013193;28;20214;-83
2021/12/17 17:52:02;;;;;;;5.53;4.90;;;;;;;;;;5012093;28;20230;-83
2021/12/17 17:54:30;;;;;;;4.53;4.13;;;;;;;;;;5013153;28;20241;-83
2021/12/17 17:56:57;;;;;;;6.75;5.15;;;;;;;;;;5012007;28;20218;-83
2021/12/17 17:59:24;;;;;;;4.38;3.97;;;;;;;;;;5012998;28;20226;-83
2021/12/17 18:01:52;;;;;;;4.88;4.47;;;;;;;;;;5012251;28;20237;-83
2021/12/17 18:04:19;;;;;;;6.53;5.90;;;;;;;;;;5012464;28;20195;-83
2021/12/17 18:06:46;;;;;;;7.88;6.43;;;;;;;;;;5012447;28;20210;-83
2021/12/17 18:09:15;;;;;;;10.63;7.68;;;;;;;;;;5012733;28;20211;-83
2021/12/17 18:11:48;;;;;;;10.32;7.68;;;;;;;;;;5012727;28;20593;-83
2021/12/17 18:14:16;;;;;;;7.43;5.65;;;;;;;;;;5012887;28;20285;-83
2021/12/17 18:16:44;;;;;;;7.43;5.90;;;;;;;;;;5012856;28;20211;-83
2021/12/17 18:19:12;;;;;;;9.00;6.25;;;;;;;;;;5012023;28;20218;-83
2021/12/17 18:21:39;;;;;;;6.97;6.35;;;;;;;;;;5012066;28;20222;-83
2021/12/17 18:24:07;;;;;;;6.18;5.57;;;;;;;;;;5012942;28;20199;-83
2021/12/17 18:26:36;;;;;;;7.40;6.60;;;;;;;;;;5013119;28;20599;-83
2021/12/17 18:29:03;;;;;;;6.32;5.72;;;;;;;;;;5012681;28;20215;-83
2021/12/17 18:31:30;;;;;;;7.50;6.13;;;;;;;;;;5012232;28;20214;-83
2021/12/17 18:33:58;;;;;;;6.82;6.13;;;;;;;;;;5012639;28;20203;-83
2021/12/17 18:36:25;;;;;;;8.32;6.35;;;;;;;;;;5012139;28;20229;-83
2021/12/17 18:38:53;;;;;;;6.45;5.82;;;;;;;;;;5012001;28;20194;-83
2021/12/17 18:41:29;;;;;;;6.95;6.25;;;;;;;;;;5011613;28;20589;-83
2021/12/17 18:44:08;;;;;;;6.55;5.95;;;;;;;;;;5013200;28;20229;-84
2021/12/17 18:46:38;;;;;;;7.72;6.47;;;;;;;;;;5013876;28;20202;-84
2021/12/17 18:49:06;;;;;;;6.47;5.88;;;;;;;;;;5013389;28;20314;-86
2021/12/17 18:51:34;;;;;;;7.78;6.97;;;;;;;;;;5012048;28;20180;-85
2021/12/17 18:54:03;;;;;;;8.10;7.15;;;;;;;;;;5013367;28;20191;-84
2021/12/17 18:56:30;;;;;;;5.72;5.13;;;;;;;;;;5012937;28;20238;-83
2021/12/17 18:59:00;;;;;;;7.00;6.22;;;;;;;;;;5015137;28;20191;-82
2021/12/17 19:01:29;;;;;;;7.40;6.47;;;;;;;;;;5015534;28;20246;-82
2021/12/17 19:03:57;;;;;;;7.68;6.88;;;;;;;;;;5012588;28;20649;-83
2021/12/17 19:06:24;;;;;;;7.03;6.28;;;;;;;;;;5009238;28;20660;-83
2021/12/17 19:08:52;;;;;;;7.60;5.70;;;;;;;;;;5017334;28;20213;-83
2021/12/17 19:11:20;;;;;;;6.88;6.18;;;;;;;;;;5017783;28;20201;-83
2021/12/17 19:13:47;;;;;;;6.97;6.30;;;;;;;;;;5017187;28;20179;-83
2021/12/17 19:16:18;;;;;;;6.85;6.15;;;;;;;;;;5016236;28;20227;-83
2021/12/17 19:18:55;;;;;;;8.55;6.82;;;;;;;;;;5017120;28;20661;-83
2021/12/17 19:21:31;;;;;;;6.55;5.95;;;;;;;;;;5018004;28;20211;-83
2021/12/17 19:24:01;;;;;;;6.05;5.45;;;;;;;;;;5011305;28;20668;-83
2021/12/17 19:26:29;;;;;;;6.45;5.85;;;;;;;;;;4997630;28;20204;-83
2021/12/17 19:28:58;;;;;;;7.53;5.90;;;;;;;;;;4997452;28;20696;-83
2021/12/17 19:31:28;;;;;;;5.50;5.03;;;;;;;;;;4997926;28;20199;-83
2021/12/17 19:33:57;;;;;;;6.18;5.38;;;;;;;;;;4997579;28;20190;-83
2021/12/17 19:36:29;;;;;;;10.02;6.93;;;;;;;;;;4998143;28;20689;-83